Flight Track Log - Related Links

Times and Time Zones

All times are in EDT time to prevent confusion due to time zone crossing. See the SWA1377 flight status page for this flight to view local times or setup timezone preferences in your user account.

Time Position Orientation Groundspeed Altitude Reporting Facility
EDT Latitude Longitude Course Direction KTS MPH feet Rate Location/Type
Wed 07:07:51 AM 29.5247 -98.4636 126° Southeast 152 175 1,600  Level Houston Center
Wed 07:08:54 AM 29.4956 -98.4175 126° Southeast 168 193 3,800 2,129 Climbing Houston Center
Wed 07:09:55 AM 29.5419 -98.3717 41° Northeast 286 329 6,000 2,876 Climbing Houston Center
Wed 07:10:55 AM 29.6297 -98.3758 358° North 318 366 9,600 3,174 Climbing Houston Center
Wed 07:11:56 AM 29.7289 -98.3778 359° North 366 421 12,400 3,148 Climbing Houston Center
Wed 07:12:57 AM 29.8325 -98.3817 358° North 374 430 16,000 3,471 Climbing Houston Center
Wed 07:13:57 AM 29.9472 -98.3861 358° North 383 441 19,400 3,124 Climbing Houston Center
Wed 07:14:58 AM 30.0594 -98.3564 13° North 414 476 22,300 2,628 Climbing Houston Center
Wed 07:15:58 AM 30.1725 -98.3103 19° North 430 495 24,700 2,281 Climbing Houston Center
Wed 07:16:59 AM 30.2917 -98.2625 19° North 451 519 26,900 1,967 Climbing Houston Center
Wed 07:18:00 AM 30.3992 -98.2194 19° North 465 535 28,700 1,967 Climbing Houston Center
Wed 07:19:01 AM 30.5242 -98.1675 20° North 471 542 30,900 2,281 Climbing Houston Center
Wed 07:20:01 AM 30.6500 -98.1169 19° North 473 544 33,300 2,430 Climbing Houston Center
Wed 07:21:02 AM 30.7717 -98.0669 19° North 461 531 35,800 2,164 Climbing Houston Center
Wed 07:22:03 AM 30.8861 -98.0208 19° North 438 504 37,700 1,694 Climbing Houston Center
Wed 07:22:27 AM 30.9467 -97.9969 19° North 429 494 38,200 786 Climbing Fort Worth Center
Wed 07:23:27 AM 31.0639 -97.9492 19° North 429 494 38,800 400 Climbing Fort Worth Center
Wed 07:24:27 AM 31.1831 -97.9014 19° North 435 501 39,000 100 Climbing Fort Worth Center
Wed 07:25:27 AM 31.3003 -97.8533 19° North 445 512 39,000  Level Fort Worth Center
Wed 07:26:27 AM 31.4047 -97.8100 19° North 445 512 39,000  Level Fort Worth Center
Wed 07:27:27 AM 31.5217 -97.7594 20° North 440 506 39,000  Level Fort Worth Center
Wed 07:28:27 AM 31.6389 -97.7086 20° North 445 512 39,000  Level Fort Worth Center
Wed 07:29:27 AM 31.7475 -97.6233 34° Northeast 453 521 39,000  Level Fort Worth Center
Wed 07:30:27 AM 31.8561 -97.5431 32° Northeast 459 528 39,000  Level Fort Worth Center
Wed 07:31:27 AM 31.9628 -97.4575 34° Northeast 459 528 39,000  Level Fort Worth Center
Wed 07:32:27 AM 32.0714 -97.3742 33° Northeast 461 531 39,000  Level Fort Worth Center
Wed 07:33:27 AM 32.1819 -97.2881 33° Northeast 466 536 39,000  Level Fort Worth Center
Wed 07:34:27 AM 32.3008 -97.1972 33° Northeast 466 536 39,000  Level Fort Worth Center
Wed 07:35:27 AM 32.4114 -97.1108 33° Northeast 471 542 39,000  Level Fort Worth Center
Wed 07:36:27 AM 32.5197 -97.0242 34° Northeast 471 542 39,000  Level Fort Worth Center
Wed 07:37:27 AM 32.6300 -96.9372 34° Northeast 471 542 39,000  Level Fort Worth Center
Wed 07:38:27 AM 32.7403 -96.8503 34° Northeast 471 542 39,000  Level Fort Worth Center
Wed 07:39:27 AM 32.8525 -96.7656 32° Northeast 471 542 39,000  Level Fort Worth Center
Wed 07:40:27 AM 32.9628 -96.6781 34° Northeast 471 542 39,000  Level Fort Worth Center
Wed 07:41:27 AM 33.0728 -96.5903 34° Northeast 471 542 39,000  Level Fort Worth Center
Wed 07:42:27 AM 33.1850 -96.5025 33° Northeast 476 548 39,000  Level Fort Worth Center
Wed 07:43:27 AM 33.2969 -96.4144 33° Northeast 476 548 39,000  Level Fort Worth Center
Wed 07:44:27 AM 33.4047 -96.3261 34° Northeast 476 548 39,000  Level Fort Worth Center
Wed 07:45:27 AM 33.5167 -96.2350 34° Northeast 476 548 39,000  Level Fort Worth Center
Wed 07:46:27 AM 33.6286 -96.1461 33° Northeast 476 548 39,000  Level Fort Worth Center
Wed 07:47:27 AM 33.7403 -96.0572 33° Northeast 481 554 39,000  Level Fort Worth Center
Wed 07:48:27 AM 33.8542 -95.9678 33° Northeast 476 548 39,000  Level Fort Worth Center
Wed 07:49:27 AM 33.9492 -95.8861 35° Northeast 471 542 39,000  Level Fort Worth Center
Wed 07:50:27 AM 34.0628 -95.7989 32° Northeast 477 549 39,000  Level Fort Worth Center
Wed 07:51:27 AM 34.1783 -95.7014 35° Northeast 464 534 39,000  Level Fort Worth Center
Wed 07:52:27 AM 34.2878 -95.6111 34° Northeast 464 534 39,000  Level Fort Worth Center
Wed 07:53:27 AM 34.4033 -95.5208 33° Northeast 470 541 39,000  Level Fort Worth Center
Wed 07:55:04 AM 34.5586 -95.3883 35° Northeast 480 552 39,000  Level Kansas City Center
Wed 07:55:29 AM 34.6242 -95.3389 32° Northeast 491 565 39,000  Level Memphis Center
Wed 07:56:30 AM 34.7342 -95.2469 34° Northeast 491 565 39,000  Level Memphis Center
Wed 07:57:29 AM 34.8464 -95.1522 35° Northeast 485 558 39,000  Level Memphis Center
Wed 07:58:29 AM 34.9564 -95.0594 35° Northeast 485 558 39,000  Level Memphis Center
Wed 07:59:29 AM 35.0661 -94.9692 34° Northeast 485 558 39,000  Level Memphis Center
Wed 08:00:29 AM 35.1781 -94.8739 35° Northeast 485 558 39,000 600 Level Memphis Center
Wed 08:01:29 AM 35.2897 -94.7806 34° Northeast 485 558 40,200 1,000 Climbing Memphis Center
Wed 08:02:29 AM 35.3953 -94.6894 35° Northeast 480 552 41,000 400 Climbing Memphis Center
Wed 08:03:29 AM 35.5069 -94.5958 34° Northeast 480 552 41,000  Level Memphis Center
Wed 08:04:29 AM 35.6167 -94.4992 36° Northeast 480 552 41,000  Level Memphis Center
Wed 08:05:29 AM 35.7261 -94.4050 35° Northeast 480 552 41,000  Level Memphis Center
Wed 08:06:29 AM 35.8375 -94.3106 34° Northeast 480 552 41,000  Level Memphis Center
Wed 08:07:29 AM 35.9467 -94.2183 34° Northeast 480 552 41,000  Level Memphis Center
Wed 08:08:29 AM 36.0581 -94.1236 34° Northeast 480 552 41,000  Level Memphis Center
Wed 08:09:29 AM 36.1544 -94.0406 35° Northeast 480 552 41,000  Level Memphis Center
Wed 08:11:18 AM 36.3611 -93.8600 35° Northeast 477 549 41,000  Level Kansas City Center
Wed 08:12:20 AM 36.4694 -93.7644 35° Northeast 476 548 41,000  Level Kansas City Center
Wed 08:13:20 AM 36.5833 -93.6650 35° Northeast 479 551 41,000  Level Kansas City Center
Wed 08:14:24 AM 36.6922 -93.5694 35° Northeast 477 549 41,000  Level Kansas City Center
Wed 08:15:25 AM 36.8028 -93.4719 35° Northeast 483 556 41,000  Level Kansas City Center
Wed 08:16:25 AM 36.9042 -93.3836 35° Northeast 484 557 41,000  Level Kansas City Center
Wed 08:17:27 AM 37.0150 -93.2853 35° Northeast 486 559 41,000  Level Kansas City Center
Wed 08:18:27 AM 37.1272 -93.1842 36° Northeast 492 566 41,000  Level Kansas City Center
Wed 08:19:30 AM 37.2608 -93.0656 35° Northeast 490 564 41,000  Level Kansas City Center
Wed 08:20:30 AM 37.3722 -92.9658 35° Northeast 489 563 41,000  Level Kansas City Center
Wed 08:21:30 AM 37.4831 -92.8644 36° Northeast 490 564 41,000  Level Kansas City Center
Wed 08:22:31 AM 37.5936 -92.7633 36° Northeast 489 563 41,000  Level Kansas City Center
Wed 08:23:32 AM 37.7017 -92.6608 37° Northeast 490 564 41,000  Level Kansas City Center
Wed 08:24:35 AM 37.8142 -92.5575 36° Northeast 496 571 41,000  Level Kansas City Center
Wed 08:25:35 AM 37.9239 -92.4569 36° Northeast 491 565 41,000  Level Kansas City Center
Wed 08:26:38 AM 38.0356 -92.3533 36° Northeast 494 568 41,000  Level Kansas City Center
Wed 08:27:38 AM 38.1478 -92.2517 35° Northeast 495 570 41,000  Level Kansas City Center
Wed 08:28:39 AM 38.2725 -92.1353 36° Northeast 493 567 41,000  Level Kansas City Center
Wed 08:29:39 AM 38.3842 -92.0314 36° Northeast 493 567 41,000  Level Kansas City Center
Wed 08:30:42 AM 38.4956 -91.9264 36° Northeast 496 571 41,000  Level Kansas City Center
Wed 08:31:43 AM 38.6056 -91.8214 37° Northeast 493 567 41,000  Level Kansas City Center
Wed 08:32:44 AM 38.7164 -91.7194 36° Northeast 489 563 41,000  Level Kansas City Center
Wed 08:33:45 AM 38.8142 -91.5819 48° Northeast 493 567 41,000 -390 Level Kansas City Center
Wed 08:34:47 AM 38.8922 -91.4400 55° Northeast 489 563 40,200 -878 Descending Kansas City Center
Wed 08:35:48 AM 38.9703 -91.2978 55° Northeast 488 562 39,200 -1,230 Descending Kansas City Center
Wed 08:36:49 AM 39.0469 -91.1586 55° Northeast 479 551 37,700 -1,450 Descending Kansas City Center
Wed 08:37:48 AM 39.1236 -91.0206 54° Northeast 474 545 36,300 -1,180 Descending Kansas City Center
Wed 08:38:51 AM 39.2003 -90.8797 55° Northeast 475 547 35,300 -919 Descending Kansas City Center
Wed 08:39:52 AM 39.2783 -90.7353 55° Northeast 485 558 34,400 -934 Descending Kansas City Center
Wed 08:40:53 AM 39.3561 -90.5917 55° Northeast 486 559 33,400 -1,041 Descending Kansas City Center
Wed 08:41:53 AM 39.4333 -90.4469 55° Northeast 487 560 32,300 -1,537 Descending Kansas City Center
Wed 08:42:54 AM 39.5122 -90.2992 55° Northeast 493 567 30,300 -1,935 Descending Kansas City Center
Wed 08:43:57 AM 39.5928 -90.1464 56° Northeast 505 581 28,300 -1,984 Descending Kansas City Center
Wed 08:44:58 AM 39.6714 -89.9947 56° Northeast 508 585 26,200 -2,164 Descending Kansas City Center
Wed 08:45:59 AM 39.7517 -89.8436 55° Northeast 496 571 23,900 -1,587 Descending Kansas City Center
Wed 08:46:59 AM 39.8269 -89.7022 55° Northeast 484 557 23,000 -439 Descending Kansas City Center
Wed 08:48:02 AM 39.9494 -89.5789 38° Northeast 476 548 23,000  Level Chicago Center
Wed 08:49:04 AM 40.0639 -89.5006 28° Northeast 471 542 23,000  Level Chicago Center
Wed 08:50:06 AM 40.1747 -89.4097 32° Northeast 472 543 23,000  Level Chicago Center
Wed 08:51:08 AM 40.2875 -89.3219 31° Northeast 473 544 23,000  Level Chicago Center
Wed 08:52:09 AM 40.3989 -89.2339 31° Northeast 472 543 23,000  Level Chicago Center
Wed 08:53:11 AM 40.5322 -89.1300 31° Northeast 470 541 23,000 -145 Level Chicago Center
Wed 08:54:13 AM 40.6433 -89.0417 31° Northeast 470 541 22,700 -1,935 Descending Chicago Center
Wed 08:55:15 AM 40.7561 -88.9519 31° Northeast 474 545 19,000 -2,488 Descending Chicago Center
Wed 08:56:16 AM 40.8656 -88.8669 30° Northeast 467 537 17,600 -2,146 Descending Chicago Center
Wed 08:57:18 AM 40.9714 -88.7822 31° Northeast 442 509 14,600 -2,710 Descending Chicago Center
Wed 08:58:20 AM 41.0717 -88.7069 30° Northeast 416 479 12,000 -1,984 Descending Chicago Center
Wed 08:59:22 AM 41.1556 -88.6364 32° Northeast 359 413 10,500 -1,512 Descending Chicago Center
Wed 09:00:23 AM 41.2358 -88.5531 38° Northeast 316 364 8,900 -1,415 Descending Chicago Center
Wed 09:01:25 AM 41.2764 -88.4533 62° Northeast 311 358 7,600 -1,113 Descending Chicago Center
Wed 09:02:27 AM 41.3156 -88.3567 62° Northeast 301 346 6,600 -774 Descending Chicago Center
Wed 09:03:29 AM 41.3681 -88.2764 49° Northeast 294 338 6,000 -293 Descending Chicago Center
Wed 09:04:30 AM 41.4239 -88.2056 44° Northeast 281 323 6,000  Level Chicago Center
Wed 09:05:32 AM 41.4817 -88.1342 43° Northeast 279 321 6,000 -532 Level Chicago Center
Wed 09:06:34 AM 41.5392 -88.0625 43° Northeast 280 322 4,900 -1,268 Descending Chicago Center
Wed 09:07:35 AM 41.5964 -87.9908 43° Northeast 279 321 3,400 -976 Descending Chicago Center
Wed 09:08:37 AM 41.6503 -87.9231 43° Northeast 274 315 2,900 -435 Descending Chicago Center
Wed 09:09:39 AM 41.7022 -87.8589 43° Northeast 231 266 2,500 -361 Descending Chicago Center
Wed 09:10:00 AM 41.7167 -87.8500 25° Northeast 185 213 2,400 -593 Descending Chicago TRACON
Wed 09:11:00 AM 41.7500 -87.8000 48° Northeast 137 158 1,700 -684 Descending Chicago TRACON
Wed 09:11:54 AM 41.7667 -87.7833 37° Northeast 117 135 1,100 -667 Descending Chicago TRACON
Wed 09:14:00 AM 41.7833 -87.7500 51° Northeast  Level FlightAware Approximate

Login

Don't have an account? Register now (free) for customized features, flight alerts, and more!